NZQN/ZQN METAR and TAF weather

Enter ICAO airport designator
Station Type Date Time Source
NZQN METAR UTC NOAA

Error!


Station Type Date Time Source
NZQN Decoded METAR UTC NOAA

Error!

Station Type Date Time Source
NZQN TAF 2019/06/18 18:02 UTC NOAA

TAF NZQN 181704Z 1818/1912 02005KT 9999 SKC

Example: see airport list